sensor_id;sensor_type;location;lat;lon;timestamp;temperature;humidity
20732;DHT22;10527;52.124;5.196;2023-05-10T00:00:59;14.30;99.90
20732;DHT22;10527;52.124;5.196;2023-05-10T00:03:26;14.30;99.90
20732;DHT22;10527;52.124;5.196;2023-05-10T00:05:53;14.40;99.90
20732;DHT22;10527;52.124;5.196;2023-05-10T00:08:20;14.40;99.90
20732;DHT22;10527;52.124;5.196;2023-05-10T00:10:46;14.40;99.90
20732;DHT22;10527;52.124;5.196;2023-05-10T00:13:13;14.50;99.90
20732;DHT22;10527;52.124;5.196;2023-05-10T00:15:40;14.50;99.90
20732;DHT22;10527;52.124;5.196;2023-05-10T00:18:07;14.50;99.90
20732;DHT22;10527;52.124;5.196;2023-05-10T00:20:37;14.50;99.90
20732;DHT22;10527;52.124;5.196;2023-05-10T00:23:04;14.40;99.90
20732;DHT22;10527;52.124;5.196;2023-05-10T00:25:31;14.40;99.90
20732;DHT22;10527;52.124;5.196;2023-05-10T00:27:59;14.30;99.90
20732;DHT22;10527;52.124;5.196;2023-05-10T00:30:27;14.40;99.90
20732;DHT22;10527;52.124;5.196;2023-05-10T00:32:54;14.30;99.90
20732;DHT22;10527;52.124;5.196;2023-05-10T00:35:21;14.30;99.90
20732;DHT22;10527;52.124;5.196;2023-05-10T00:37:48;14.30;99.90
20732;DHT22;10527;52.124;5.196;2023-05-10T00:40:15;14.30;99.90
20732;DHT22;10527;52.124;5.196;2023-05-10T00:42:42;14.30;99.90
20732;DHT22;10527;52.124;5.196;2023-05-10T00:45:09;14.20;99.90
20732;DHT22;10527;52.124;5.196;2023-05-10T00:47:36;14.20;99.90
20732;DHT22;10527;52.124;5.196;2023-05-10T00:50:04;14.30;99.90
20732;DHT22;10527;52.124;5.196;2023-05-10T00:52:32;14.30;99.90
20732;DHT22;10527;52.124;5.196;2023-05-10T00:54:58;14.30;99.90
20732;DHT22;10527;52.124;5.196;2023-05-10T00:57:30;14.30;99.90
20732;DHT22;10527;52.124;5.196;2023-05-10T00:59:57;14.30;99.90
20732;DHT22;10527;52.124;5.196;2023-05-10T01:02:25;14.20;99.90
20732;DHT22;10527;52.124;5.196;2023-05-10T01:04:52;14.10;99.90
20732;DHT22;10527;52.124;5.196;2023-05-10T01:07:19;14.10;99.90
20732;DHT22;10527;52.124;5.196;2023-05-10T01:09:46;14.20;99.90
20732;DHT22;10527;52.124;5.196;2023-05-10T01:12:14;14.20;99.90
20732;DHT22;10527;52.124;5.196;2023-05-10T01:14:41;14.10;99.90
20732;DHT22;10527;52.124;5.196;2023-05-10T01:17:10;14.10;99.90
20732;DHT22;10527;52.124;5.196;2023-05-10T01:19:40;14.20;99.90
20732;DHT22;10527;52.124;5.196;2023-05-10T01:28:07;14.00;99.90
20732;DHT22;10527;52.124;5.196;2023-05-10T01:34:19;13.90;99.90
20732;DHT22;10527;52.124;5.196;2023-05-10T01:36:56;13.80;99.90
20732;DHT22;10527;52.124;5.196;2023-05-10T01:39:45;13.80;99.90
20732;DHT22;10527;52.124;5.196;2023-05-10T01:42:45;13.90;99.90
20732;DHT22;10527;52.124;5.196;2023-05-10T01:48:07;13.90;99.90
20732;DHT22;10527;52.124;5.196;2023-05-10T01:50:38;13.90;99.90
20732;DHT22;10527;52.124;5.196;2023-05-10T01:53:09;13.90;99.90
20732;DHT22;10527;52.124;5.196;2023-05-10T01:55:48;13.90;99.90
20732;DHT22;10527;52.124;5.196;2023-05-10T01:58:22;13.90;99.90
20732;DHT22;10527;52.124;5.196;2023-05-10T02:00:54;13.90;99.90
20732;DHT22;10527;52.124;5.196;2023-05-10T02:03:24;13.90;99.90
20732;DHT22;10527;52.124;5.196;2023-05-10T02:05:54;13.80;99.90
20732;DHT22;10527;52.124;5.196;2023-05-10T02:08:24;13.70;99.90
20732;DHT22;10527;52.124;5.196;2023-05-10T02:10:54;13.70;99.90
20732;DHT22;10527;52.124;5.196;2023-05-10T02:13:24;13.70;99.90
20732;DHT22;10527;52.124;5.196;2023-05-10T02:15:54;13.70;99.90
20732;DHT22;10527;52.124;5.196;2023-05-10T02:18:23;13.60;99.90
20732;DHT22;10527;52.124;5.196;2023-05-10T02:20:54;13.40;99.90
20732;DHT22;10527;52.124;5.196;2023-05-10T02:23:23;13.30;99.90
20732;DHT22;10527;52.124;5.196;2023-05-10T02:25:52;13.10;99.90
20732;DHT22;10527;52.124;5.196;2023-05-10T02:28:24;13.10;99.90
20732;DHT22;10527;52.124;5.196;2023-05-10T02:30:54;13.10;99.90
20732;DHT22;10527;52.124;5.196;2023-05-10T02:33:22;13.10;99.90
20732;DHT22;10527;52.124;5.196;2023-05-10T02:35:51;13.20;99.90
20732;DHT22;10527;52.124;5.196;2023-05-10T02:38:20;13.20;99.90
20732;DHT22;10527;52.124;5.196;2023-05-10T02:40:50;13.20;99.90
20732;DHT22;10527;52.124;5.196;2023-05-10T02:43:18;13.20;99.90
20732;DHT22;10527;52.124;5.196;2023-05-10T02:45:49;13.20;99.90
20732;DHT22;10527;52.124;5.196;2023-05-10T02:48:16;13.20;99.90
20732;DHT22;10527;52.124;5.196;2023-05-10T02:50:44;13.20;99.90
20732;DHT22;10527;52.124;5.196;2023-05-10T02:53:18;13.20;99.90
20732;DHT22;10527;52.124;5.196;2023-05-10T02:55:52;13.20;99.90
20732;DHT22;10527;52.124;5.196;2023-05-10T02:58:23;13.30;99.90
20732;DHT22;10527;52.124;5.196;2023-05-10T03:00:50;13.20;99.90
20732;DHT22;10527;52.124;5.196;2023-05-10T03:03:17;13.20;99.90
20732;DHT22;10527;52.124;5.196;2023-05-10T03:05:44;13.20;99.90
20732;DHT22;10527;52.124;5.196;2023-05-10T03:08:11;13.10;99.90
20732;DHT22;10527;52.124;5.196;2023-05-10T03:10:47;13.10;99.90
20732;DHT22;10527;52.124;5.196;2023-05-10T03:13:54;13.20;99.90
20732;DHT22;10527;52.124;5.196;2023-05-10T03:16:52;13.20;99.90
20732;DHT22;10527;52.124;5.196;2023-05-10T03:19:35;13.10;99.90
20732;DHT22;10527;52.124;5.196;2023-05-10T03:22:10;13.20;99.90
20732;DHT22;10527;52.124;5.196;2023-05-10T03:24:41;13.20;99.90
20732;DHT22;10527;52.124;5.196;2023-05-10T03:27:10;13.30;99.90
20732;DHT22;10527;52.124;5.196;2023-05-10T03:29:39;13.30;99.90
20732;DHT22;10527;52.124;5.196;2023-05-10T03:32:06;13.30;99.90
20732;DHT22;10527;52.124;5.196;2023-05-10T03:34:33;13.30;99.90
20732;DHT22;10527;52.124;5.196;2023-05-10T03:37:00;13.30;99.90
20732;DHT22;10527;52.124;5.196;2023-05-10T03:39:26;13.30;99.90
20732;DHT22;10527;52.124;5.196;2023-05-10T03:41:53;13.30;99.90
20732;DHT22;10527;52.124;5.196;2023-05-10T03:44:20;13.20;99.90
20732;DHT22;10527;52.124;5.196;2023-05-10T03:46:47;13.30;99.90
20732;DHT22;10527;52.124;5.196;2023-05-10T03:49:14;13.30;99.90
20732;DHT22;10527;52.124;5.196;2023-05-10T03:51:41;13.20;99.90
20732;DHT22;10527;52.124;5.196;2023-05-10T03:54:08;13.30;99.90
20732;DHT22;10527;52.124;5.196;2023-05-10T03:56:37;13.20;99.90
20732;DHT22;10527;52.124;5.196;2023-05-10T03:59:04;13.20;99.90
20732;DHT22;10527;52.124;5.196;2023-05-10T04:01:34;13.30;99.90
20732;DHT22;10527;52.124;5.196;2023-05-10T04:04:01;13.20;99.90
20732;DHT22;10527;52.124;5.196;2023-05-10T04:06:28;13.30;99.90
20732;DHT22;10527;52.124;5.196;2023-05-10T04:08:55;13.30;99.90
20732;DHT22;10527;52.124;5.196;2023-05-10T04:11:22;13.30;99.90
20732;DHT22;10527;52.124;5.196;2023-05-10T04:13:49;13.20;99.90
20732;DHT22;10527;52.124;5.196;2023-05-10T04:16:15;13.20;99.90
20732;DHT22;10527;52.124;5.196;2023-05-10T04:18:42;13.20;99.90
20732;DHT22;10527;52.124;5.196;2023-05-10T04:21:13;13.20;99.90
20732;DHT22;10527;52.124;5.196;2023-05-10T04:23:42;13.20;99.90
20732;DHT22;10527;52.124;5.196;2023-05-10T04:26:11;13.20;99.90
20732;DHT22;10527;52.124;5.196;2023-05-10T04:28:38;13.10;99.90
20732;DHT22;10527;52.124;5.196;2023-05-10T04:31:06;13.20;99.90
20732;DHT22;10527;52.124;5.196;2023-05-10T04:33:35;13.20;99.90
20732;DHT22;10527;52.124;5.196;2023-05-10T04:36:03;13.10;99.90
20732;DHT22;10527;52.124;5.196;2023-05-10T04:38:31;13.10;99.90
20732;DHT22;10527;52.124;5.196;2023-05-10T04:41:09;13.10;99.90
20732;DHT22;10527;52.124;5.196;2023-05-10T04:43:38;13.20;99.90
20732;DHT22;10527;52.124;5.196;2023-05-10T04:46:05;13.20;99.90
20732;DHT22;10527;52.124;5.196;2023-05-10T04:48:34;13.20;99.90
20732;DHT22;10527;52.124;5.196;2023-05-10T04:51:00;13.20;99.90
20732;DHT22;10527;52.124;5.196;2023-05-10T04:53:27;13.20;99.90
20732;DHT22;10527;52.124;5.196;2023-05-10T04:55:54;13.20;99.90
20732;DHT22;10527;52.124;5.196;2023-05-10T04:58:21;13.30;99.90
20732;DHT22;10527;52.124;5.196;2023-05-10T05:00:48;13.20;99.90
20732;DHT22;10527;52.124;5.196;2023-05-10T05:03:15;13.20;99.90
20732;DHT22;10527;52.124;5.196;2023-05-10T05:05:41;13.10;99.90
20732;DHT22;10527;52.124;5.196;2023-05-10T05:08:10;13.10;99.90
20732;DHT22;10527;52.124;5.196;2023-05-10T05:10:36;13.20;99.90
20732;DHT22;10527;52.124;5.196;2023-05-10T05:13:03;13.20;99.90
20732;DHT22;10527;52.124;5.196;2023-05-10T05:15:30;13.20;99.90
20732;DHT22;10527;52.124;5.196;2023-05-10T05:17:57;13.10;99.90
20732;DHT22;10527;52.124;5.196;2023-05-10T05:20:24;13.20;99.90
20732;DHT22;10527;52.124;5.196;2023-05-10T05:22:51;13.10;99.90
20732;DHT22;10527;52.124;5.196;2023-05-10T05:25:17;13.10;99.90
20732;DHT22;10527;52.124;5.196;2023-05-10T05:27:44;13.10;99.90
20732;DHT22;10527;52.124;5.196;2023-05-10T05:30:11;13.10;99.90
20732;DHT22;10527;52.124;5.196;2023-05-10T05:32:39;13.10;99.90
20732;DHT22;10527;52.124;5.196;2023-05-10T05:35:06;13.20;99.90
20732;DHT22;10527;52.124;5.196;2023-05-10T05:37:33;13.10;99.90
20732;DHT22;10527;52.124;5.196;2023-05-10T05:40:00;13.20;99.90
20732;DHT22;10527;52.124;5.196;2023-05-10T05:42:28;13.10;99.90
20732;DHT22;10527;52.124;5.196;2023-05-10T05:44:55;13.10;99.90
20732;DHT22;10527;52.124;5.196;2023-05-10T05:47:22;13.10;99.90
20732;DHT22;10527;52.124;5.196;2023-05-10T05:49:49;13.10;99.90
20732;DHT22;10527;52.124;5.196;2023-05-10T05:52:15;13.00;99.90
20732;DHT22;10527;52.124;5.196;2023-05-10T05:54:43;13.00;99.90
20732;DHT22;10527;52.124;5.196;2023-05-10T05:57:10;13.10;99.90
20732;DHT22;10527;52.124;5.196;2023-05-10T05:59:36;13.10;99.90
20732;DHT22;10527;52.124;5.196;2023-05-10T06:02:08;13.10;99.90
20732;DHT22;10527;52.124;5.196;2023-05-10T06:04:36;13.00;99.90
20732;DHT22;10527;52.124;5.196;2023-05-10T06:07:08;13.00;99.90
20732;DHT22;10527;52.124;5.196;2023-05-10T06:09:35;13.00;99.90
20732;DHT22;10527;52.124;5.196;2023-05-10T06:12:02;13.00;99.90
20732;DHT22;10527;52.124;5.196;2023-05-10T06:14:31;13.10;99.90
20732;DHT22;10527;52.124;5.196;2023-05-10T06:16:58;13.20;99.90
20732;DHT22;10527;52.124;5.196;2023-05-10T06:19:28;13.20;99.90
20732;DHT22;10527;52.124;5.196;2023-05-10T06:21:55;13.10;99.90
20732;DHT22;10527;52.124;5.196;2023-05-10T06:24:22;13.00;99.90
20732;DHT22;10527;52.124;5.196;2023-05-10T06:26:51;13.10;99.90
20732;DHT22;10527;52.124;5.196;2023-05-10T06:29:18;13.20;99.90
20732;DHT22;10527;52.124;5.196;2023-05-10T06:31:46;13.00;99.90
20732;DHT22;10527;52.124;5.196;2023-05-10T06:34:13;13.10;99.90
20732;DHT22;10527;52.124;5.196;2023-05-10T06:36:40;13.10;99.90
20732;DHT22;10527;52.124;5.196;2023-05-10T06:39:07;13.10;99.90
20732;DHT22;10527;52.124;5.196;2023-05-10T06:41:35;13.20;99.90
20732;DHT22;10527;52.124;5.196;2023-05-10T06:44:02;13.20;99.90
20732;DHT22;10527;52.124;5.196;2023-05-10T06:46:30;13.00;99.90
20732;DHT22;10527;52.124;5.196;2023-05-10T06:48:57;13.10;99.90
20732;DHT22;10527;52.124;5.196;2023-05-10T06:51:24;13.20;99.90
20732;DHT22;10527;52.124;5.196;2023-05-10T06:53:51;13.20;99.90
20732;DHT22;10527;52.124;5.196;2023-05-10T06:56:17;13.20;99.90
20732;DHT22;10527;52.124;5.196;2023-05-10T06:58:45;13.20;99.90
20732;DHT22;10527;52.124;5.196;2023-05-10T07:01:13;13.20;99.90
20732;DHT22;10527;52.124;5.196;2023-05-10T07:03:40;13.30;99.90
20732;DHT22;10527;52.124;5.196;2023-05-10T07:06:07;13.50;99.90
20732;DHT22;10527;52.124;5.196;2023-05-10T07:08:44;13.60;99.90
20732;DHT22;10527;52.124;5.196;2023-05-10T07:11:11;13.60;99.90
20732;DHT22;10527;52.124;5.196;2023-05-10T07:13:37;13.60;99.90
20732;DHT22;10527;52.124;5.196;2023-05-10T07:16:07;13.50;99.90
20732;DHT22;10527;52.124;5.196;2023-05-10T07:18:34;13.50;99.90
20732;DHT22;10527;52.124;5.196;2023-05-10T07:21:02;13.50;99.90
20732;DHT22;10527;52.124;5.196;2023-05-10T07:23:29;13.60;99.90
20732;DHT22;10527;52.124;5.196;2023-05-10T07:25:56;13.70;99.90
20732;DHT22;10527;52.124;5.196;2023-05-10T07:28:23;13.60;99.90
20732;DHT22;10527;52.124;5.196;2023-05-10T07:30:50;13.60;99.90
20732;DHT22;10527;52.124;5.196;2023-05-10T07:33:17;13.50;99.90
20732;DHT22;10527;52.124;5.196;2023-05-10T07:35:44;13.50;99.90
20732;DHT22;10527;52.124;5.196;2023-05-10T07:38:11;13.50;99.90
20732;DHT22;10527;52.124;5.196;2023-05-10T07:40:39;13.70;99.90
20732;DHT22;10527;52.124;5.196;2023-05-10T07:43:06;13.80;99.90
20732;DHT22;10527;52.124;5.196;2023-05-10T07:45:33;13.80;99.90
20732;DHT22;10527;52.124;5.196;2023-05-10T07:48:00;13.80;99.90
20732;DHT22;10527;52.124;5.196;2023-05-10T07:50:27;13.80;99.90
20732;DHT22;10527;52.124;5.196;2023-05-10T07:52:54;13.70;99.90
20732;DHT22;10527;52.124;5.196;2023-05-10T07:55:21;13.80;99.90
20732;DHT22;10527;52.124;5.196;2023-05-10T07:57:48;13.70;99.90
20732;DHT22;10527;52.124;5.196;2023-05-10T08:00:19;13.80;99.90
20732;DHT22;10527;52.124;5.196;2023-05-10T08:02:47;13.80;99.90
20732;DHT22;10527;52.124;5.196;2023-05-10T08:05:14;13.90;99.90
20732;DHT22;10527;52.124;5.196;2023-05-10T08:07:42;14.00;99.90
20732;DHT22;10527;52.124;5.196;2023-05-10T08:10:09;13.90;99.90
20732;DHT22;10527;52.124;5.196;2023-05-10T08:12:38;14.00;99.90
20732;DHT22;10527;52.124;5.196;2023-05-10T08:15:05;14.10;99.90
20732;DHT22;10527;52.124;5.196;2023-05-10T08:17:33;14.20;99.90
20732;DHT22;10527;52.124;5.196;2023-05-10T08:20:00;14.20;99.90
20732;DHT22;10527;52.124;5.196;2023-05-10T08:22:27;14.20;99.90
20732;DHT22;10527;52.124;5.196;2023-05-10T08:24:54;14.20;99.90
20732;DHT22;10527;52.124;5.196;2023-05-10T08:27:21;14.30;99.90
20732;DHT22;10527;52.124;5.196;2023-05-10T08:29:48;14.20;99.90
20732;DHT22;10527;52.124;5.196;2023-05-10T08:32:16;14.20;99.90
20732;DHT22;10527;52.124;5.196;2023-05-10T08:34:44;14.20;99.90
20732;DHT22;10527;52.124;5.196;2023-05-10T08:37:10;14.20;99.90
20732;DHT22;10527;52.124;5.196;2023-05-10T08:39:40;14.10;99.90
20732;DHT22;10527;52.124;5.196;2023-05-10T08:42:07;14.10;99.90
20732;DHT22;10527;52.124;5.196;2023-05-10T08:44:36;14.00;99.90
20732;DHT22;10527;52.124;5.196;2023-05-10T08:47:07;14.10;99.90
20732;DHT22;10527;52.124;5.196;2023-05-10T08:49:40;14.00;99.90
20732;DHT22;10527;52.124;5.196;2023-05-10T08:52:08;14.10;99.90
20732;DHT22;10527;52.124;5.196;2023-05-10T08:54:37;14.30;99.90
20732;DHT22;10527;52.124;5.196;2023-05-10T08:57:05;14.30;99.90
20732;DHT22;10527;52.124;5.196;2023-05-10T08:59:32;14.40;99.90
20732;DHT22;10527;52.124;5.196;2023-05-10T09:01:59;14.40;99.90
20732;DHT22;10527;52.124;5.196;2023-05-10T09:04:29;14.50;99.90
20732;DHT22;10527;52.124;5.196;2023-05-10T09:06:57;14.50;99.90
20732;DHT22;10527;52.124;5.196;2023-05-10T09:09:25;14.50;99.90
20732;DHT22;10527;52.124;5.196;2023-05-10T09:11:55;14.50;99.90
20732;DHT22;10527;52.124;5.196;2023-05-10T09:14:23;14.50;99.90
20732;DHT22;10527;52.124;5.196;2023-05-10T09:16:52;14.50;99.90
20732;DHT22;10527;52.124;5.196;2023-05-10T09:19:20;14.50;99.90
20732;DHT22;10527;52.124;5.196;2023-05-10T09:21:47;14.50;99.90
20732;DHT22;10527;52.124;5.196;2023-05-10T09:24:15;14.40;99.90
20732;DHT22;10527;52.124;5.196;2023-05-10T09:26:48;14.40;99.90
20732;DHT22;10527;52.124;5.196;2023-05-10T09:29:15;14.50;99.90
20732;DHT22;10527;52.124;5.196;2023-05-10T09:31:52;14.60;99.90
20732;DHT22;10527;52.124;5.196;2023-05-10T09:34:32;14.70;99.90
20732;DHT22;10527;52.124;5.196;2023-05-10T09:37:02;14.70;99.90
20732;DHT22;10527;52.124;5.196;2023-05-10T09:39:35;14.70;99.90
20732;DHT22;10527;52.124;5.196;2023-05-10T09:42:06;14.80;99.90
20732;DHT22;10527;52.124;5.196;2023-05-10T09:44:35;14.90;99.90
20732;DHT22;10527;52.124;5.196;2023-05-10T09:47:03;15.10;99.90
20732;DHT22;10527;52.124;5.196;2023-05-10T09:49:30;15.20;99.90
20732;DHT22;10527;52.124;5.196;2023-05-10T09:52:03;15.20;99.90
20732;DHT22;10527;52.124;5.196;2023-05-10T09:54:33;15.20;99.90
20732;DHT22;10527;52.124;5.196;2023-05-10T09:57:00;15.20;99.90
20732;DHT22;10527;52.124;5.196;2023-05-10T09:59:28;15.20;99.90
20732;DHT22;10527;52.124;5.196;2023-05-10T10:01:57;15.10;99.90
20732;DHT22;10527;52.124;5.196;2023-05-10T10:04:26;15.10;99.90
20732;DHT22;10527;52.124;5.196;2023-05-10T10:07:02;15.20;99.90
20732;DHT22;10527;52.124;5.196;2023-05-10T10:09:31;15.20;99.90
20732;DHT22;10527;52.124;5.196;2023-05-10T10:12:00;15.20;99.90
20732;DHT22;10527;52.124;5.196;2023-05-10T10:14:29;15.20;99.90
20732;DHT22;10527;52.124;5.196;2023-05-10T10:16:56;15.20;99.90
20732;DHT22;10527;52.124;5.196;2023-05-10T10:19:34;15.20;99.90
20732;DHT22;10527;52.124;5.196;2023-05-10T10:22:02;15.30;99.90
20732;DHT22;10527;52.124;5.196;2023-05-10T10:24:29;15.30;99.90
20732;DHT22;10527;52.124;5.196;2023-05-10T10:27:11;15.20;99.90
20732;DHT22;10527;52.124;5.196;2023-05-10T10:30:10;15.20;99.90
20732;DHT22;10527;52.124;5.196;2023-05-10T10:33:34;15.20;99.90
20732;DHT22;10527;52.124;5.196;2023-05-10T10:36:03;15.20;99.90
20732;DHT22;10527;52.124;5.196;2023-05-10T10:39:00;15.10;99.90
20732;DHT22;10527;52.124;5.196;2023-05-10T10:41:33;15.00;99.90
20732;DHT22;10527;52.124;5.196;2023-05-10T10:50:02;15.40;99.90
20732;DHT22;10527;52.124;5.196;2023-05-10T10:52:31;15.40;99.90
20732;DHT22;10527;52.124;5.196;2023-05-10T10:57:29;15.70;99.90
20732;DHT22;10527;52.124;5.196;2023-05-10T11:03:09;15.90;99.90
20732;DHT22;10527;52.124;5.196;2023-05-10T11:05:48;16.00;99.90
20732;DHT22;10527;52.124;5.196;2023-05-10T11:08:17;16.00;99.90
20732;DHT22;10527;52.124;5.196;2023-05-10T11:11:06;15.90;99.90
20732;DHT22;10527;52.124;5.196;2023-05-10T11:13:43;15.90;99.90
20732;DHT22;10527;52.124;5.196;2023-05-10T11:16:24;15.90;99.90
20732;DHT22;10527;52.124;5.196;2023-05-10T11:19:10;15.90;99.90
20732;DHT22;10527;52.124;5.196;2023-05-10T11:24:31;15.90;99.90
20732;DHT22;10527;52.124;5.196;2023-05-10T11:27:00;15.80;99.90
20732;DHT22;10527;52.124;5.196;2023-05-10T11:29:27;16.00;99.90
20732;DHT22;10527;52.124;5.196;2023-05-10T11:31:57;15.80;99.90
20732;DHT22;10527;52.124;5.196;2023-05-10T11:34:27;15.80;99.90
20732;DHT22;10527;52.124;5.196;2023-05-10T11:36:57;15.90;99.90
20732;DHT22;10527;52.124;5.196;2023-05-10T11:39:28;15.80;99.90
20732;DHT22;10527;52.124;5.196;2023-05-10T11:41:57;15.70;99.90
20732;DHT22;10527;52.124;5.196;2023-05-10T11:44:32;15.70;99.90
20732;DHT22;10527;52.124;5.196;2023-05-10T11:47:00;15.90;99.90
20732;DHT22;10527;52.124;5.196;2023-05-10T11:49:28;16.10;99.90
20732;DHT22;10527;52.124;5.196;2023-05-10T11:52:08;16.30;99.90
20732;DHT22;10527;52.124;5.196;2023-05-10T11:54:37;16.50;99.90
20732;DHT22;10527;52.124;5.196;2023-05-10T11:57:04;16.50;99.90
20732;DHT22;10527;52.124;5.196;2023-05-10T11:59:31;16.50;99.90
20732;DHT22;10527;52.124;5.196;2023-05-10T12:01:58;16.70;99.90
20732;DHT22;10527;52.124;5.196;2023-05-10T12:04:26;16.90;99.90
20732;DHT22;10527;52.124;5.196;2023-05-10T12:06:56;16.80;99.90
20732;DHT22;10527;52.124;5.196;2023-05-10T12:09:23;16.90;99.90
20732;DHT22;10527;52.124;5.196;2023-05-10T12:12:09;17.00;99.90
20732;DHT22;10527;52.124;5.196;2023-05-10T12:14:36;16.90;99.90
20732;DHT22;10527;52.124;5.196;2023-05-10T12:17:03;16.90;99.90
20732;DHT22;10527;52.124;5.196;2023-05-10T12:19:37;16.80;99.90
20732;DHT22;10527;52.124;5.196;2023-05-10T12:22:05;16.80;99.90
20732;DHT22;10527;52.124;5.196;2023-05-10T12:24:36;16.80;99.90
20732;DHT22;10527;52.124;5.196;2023-05-10T12:27:05;16.60;99.90
20732;DHT22;10527;52.124;5.196;2023-05-10T12:29:34;16.50;99.90
20732;DHT22;10527;52.124;5.196;2023-05-10T12:32:01;16.40;99.90
20732;DHT22;10527;52.124;5.196;2023-05-10T12:34:33;16.50;99.90
20732;DHT22;10527;52.124;5.196;2023-05-10T12:37:02;16.60;99.90
20732;DHT22;10527;52.124;5.196;2023-05-10T12:39:40;16.40;99.90
20732;DHT22;10527;52.124;5.196;2023-05-10T12:42:15;16.40;99.90
20732;DHT22;10527;52.124;5.196;2023-05-10T12:44:42;16.40;99.90
20732;DHT22;10527;52.124;5.196;2023-05-10T12:47:10;16.10;99.90
20732;DHT22;10527;52.124;5.196;2023-05-10T12:49:37;15.70;99.90
20732;DHT22;10527;52.124;5.196;2023-05-10T12:52:04;15.10;99.90
20732;DHT22;10527;52.124;5.196;2023-05-10T12:54:31;14.70;99.90
20732;DHT22;10527;52.124;5.196;2023-05-10T12:56:57;14.60;99.90
20732;DHT22;10527;52.124;5.196;2023-05-10T12:59:24;14.50;99.90
20732;DHT22;10527;52.124;5.196;2023-05-10T13:01:51;14.40;99.90
20732;DHT22;10527;52.124;5.196;2023-05-10T13:04:18;14.50;99.90
20732;DHT22;10527;52.124;5.196;2023-05-10T13:06:44;14.40;99.90
20732;DHT22;10527;52.124;5.196;2023-05-10T13:09:11;14.30;99.90
20732;DHT22;10527;52.124;5.196;2023-05-10T13:11:38;14.30;99.90
20732;DHT22;10527;52.124;5.196;2023-05-10T13:14:05;14.40;99.90
20732;DHT22;10527;52.124;5.196;2023-05-10T13:16:32;14.30;99.90
20732;DHT22;10527;52.124;5.196;2023-05-10T13:18:59;14.20;99.90
20732;DHT22;10527;52.124;5.196;2023-05-10T13:21:25;14.30;99.90
20732;DHT22;10527;52.124;5.196;2023-05-10T13:23:53;14.30;99.90
20732;DHT22;10527;52.124;5.196;2023-05-10T13:26:21;14.40;99.90
20732;DHT22;10527;52.124;5.196;2023-05-10T13:28:48;14.40;99.90
20732;DHT22;10527;52.124;5.196;2023-05-10T13:31:15;14.50;99.90
20732;DHT22;10527;52.124;5.196;2023-05-10T13:33:45;14.50;99.90
20732;DHT22;10527;52.124;5.196;2023-05-10T13:36:12;14.50;99.90
20732;DHT22;10527;52.124;5.196;2023-05-10T13:38:38;14.60;99.90
20732;DHT22;10527;52.124;5.196;2023-05-10T13:41:05;14.60;99.90
20732;DHT22;10527;52.124;5.196;2023-05-10T13:43:32;14.50;99.90
20732;DHT22;10527;52.124;5.196;2023-05-10T13:45:59;14.60;99.90
20732;DHT22;10527;52.124;5.196;2023-05-10T13:48:26;14.50;99.90
20732;DHT22;10527;52.124;5.196;2023-05-10T13:50:53;14.60;99.90
20732;DHT22;10527;52.124;5.196;2023-05-10T13:53:20;14.60;99.90
20732;DHT22;10527;52.124;5.196;2023-05-10T13:55:48;14.60;99.90
20732;DHT22;10527;52.124;5.196;2023-05-10T13:58:18;14.70;99.90
20732;DHT22;10527;52.124;5.196;2023-05-10T14:00:44;14.70;99.90
20732;DHT22;10527;52.124;5.196;2023-05-10T14:03:11;14.60;99.90
20732;DHT22;10527;52.124;5.196;2023-05-10T14:05:38;14.60;99.90
20732;DHT22;10527;52.124;5.196;2023-05-10T14:08:05;14.90;99.90
20732;DHT22;10527;52.124;5.196;2023-05-10T14:10:33;14.90;99.90
20732;DHT22;10527;52.124;5.196;2023-05-10T14:13:00;14.90;99.90
20732;DHT22;10527;52.124;5.196;2023-05-10T14:15:27;14.90;99.90
20732;DHT22;10527;52.124;5.196;2023-05-10T14:17:54;14.80;99.90
20732;DHT22;10527;52.124;5.196;2023-05-10T14:20:21;14.90;99.90
20732;DHT22;10527;52.124;5.196;2023-05-10T14:22:47;14.80;99.90
20732;DHT22;10527;52.124;5.196;2023-05-10T14:25:14;14.90;99.90
20732;DHT22;10527;52.124;5.196;2023-05-10T14:27:41;14.90;99.90
20732;DHT22;10527;52.124;5.196;2023-05-10T14:30:09;15.00;99.90
20732;DHT22;10527;52.124;5.196;2023-05-10T14:32:36;15.00;99.90
20732;DHT22;10527;52.124;5.196;2023-05-10T14:35:03;15.10;99.90
20732;DHT22;10527;52.124;5.196;2023-05-10T14:37:32;15.10;99.90
20732;DHT22;10527;52.124;5.196;2023-05-10T14:39:59;15.20;99.90
20732;DHT22;10527;52.124;5.196;2023-05-10T14:42:25;15.20;99.90
20732;DHT22;10527;52.124;5.196;2023-05-10T14:44:52;15.20;99.90
20732;DHT22;10527;52.124;5.196;2023-05-10T14:47:19;15.10;99.90
20732;DHT22;10527;52.124;5.196;2023-05-10T14:49:45;15.10;99.90
20732;DHT22;10527;52.124;5.196;2023-05-10T14:52:12;15.20;99.90
20732;DHT22;10527;52.124;5.196;2023-05-10T14:54:40;15.20;99.90
20732;DHT22;10527;52.124;5.196;2023-05-10T14:57:07;15.30;99.90
20732;DHT22;10527;52.124;5.196;2023-05-10T14:59:34;15.50;99.90
20732;DHT22;10527;52.124;5.196;2023-05-10T15:02:01;15.60;99.90
20732;DHT22;10527;52.124;5.196;2023-05-10T15:04:28;15.60;99.90
20732;DHT22;10527;52.124;5.196;2023-05-10T15:06:55;15.60;99.90
20732;DHT22;10527;52.124;5.196;2023-05-10T15:09:26;15.60;99.90
20732;DHT22;10527;52.124;5.196;2023-05-10T15:11:55;15.60;99.90
20732;DHT22;10527;52.124;5.196;2023-05-10T15:14:22;15.60;99.90
20732;DHT22;10527;52.124;5.196;2023-05-10T15:16:49;15.60;99.90
20732;DHT22;10527;52.124;5.196;2023-05-10T15:19:16;15.60;99.90
20732;DHT22;10527;52.124;5.196;2023-05-10T15:21:43;15.50;99.90
20732;DHT22;10527;52.124;5.196;2023-05-10T15:24:11;15.60;99.90
20732;DHT22;10527;52.124;5.196;2023-05-10T15:26:38;15.60;99.90
20732;DHT22;10527;52.124;5.196;2023-05-10T15:29:04;15.70;99.90
20732;DHT22;10527;52.124;5.196;2023-05-10T15:31:31;15.60;99.90
20732;DHT22;10527;52.124;5.196;2023-05-10T15:34:01;15.50;99.90
20732;DHT22;10527;52.124;5.196;2023-05-10T15:36:28;15.50;99.90
20732;DHT22;10527;52.124;5.196;2023-05-10T15:38:54;15.40;99.90
20732;DHT22;10527;52.124;5.196;2023-05-10T15:41:22;15.40;99.90
20732;DHT22;10527;52.124;5.196;2023-05-10T15:43:49;15.40;99.90
20732;DHT22;10527;52.124;5.196;2023-05-10T15:46:16;15.50;99.90
20732;DHT22;10527;52.124;5.196;2023-05-10T15:48:43;15.40;99.90
20732;DHT22;10527;52.124;5.196;2023-05-10T15:51:12;15.40;99.90
20732;DHT22;10527;52.124;5.196;2023-05-10T15:53:39;15.40;99.90
20732;DHT22;10527;52.124;5.196;2023-05-10T15:56:18;15.70;99.90
20732;DHT22;10527;52.124;5.196;2023-05-10T15:58:45;15.60;99.90
20732;DHT22;10527;52.124;5.196;2023-05-10T16:01:12;15.60;99.90
20732;DHT22;10527;52.124;5.196;2023-05-10T16:03:39;15.60;99.90
20732;DHT22;10527;52.124;5.196;2023-05-10T16:06:06;15.50;99.90
20732;DHT22;10527;52.124;5.196;2023-05-10T16:08:32;15.40;99.90